sensor_id;sensor_type;location;lat;lon;timestamp;P1;durP1;ratioP1;P2;durP2;ratioP2
52396;SDS011;38322;53.108;6.308;2022-12-18T06:00:33;48.97;;;25.33;;
52396;SDS011;38322;53.108;6.308;2022-12-18T06:03:00;64.72;;;27.67;;
52396;SDS011;38322;53.108;6.308;2022-12-18T06:05:26;60.35;;;26.33;;
52396;SDS011;38322;53.108;6.308;2022-12-18T06:07:52;58.40;;;27.33;;
52396;SDS011;38322;53.108;6.308;2022-12-18T06:10:18;55.22;;;25.80;;
52396;SDS011;38322;53.108;6.308;2022-12-18T06:12:44;67.60;;;26.33;;
52396;SDS011;38322;53.108;6.308;2022-12-18T06:15:10;64.70;;;25.77;;
52396;SDS011;38322;53.108;6.308;2022-12-18T06:17:36;53.78;;;25.80;;
52396;SDS011;38322;53.108;6.308;2022-12-18T06:20:02;56.83;;;27.48;;
52396;SDS011;38322;53.108;6.308;2022-12-18T06:22:30;60.25;;;24.60;;
52396;SDS011;38322;53.108;6.308;2022-12-18T06:24:57;61.20;;;27.30;;
52396;SDS011;38322;53.108;6.308;2022-12-18T06:27:22;59.92;;;27.02;;
52396;SDS011;38322;53.108;6.308;2022-12-18T06:29:48;54.38;;;22.85;;
52396;SDS011;38322;53.108;6.308;2022-12-18T06:32:14;54.53;;;24.80;;
52396;SDS011;38322;53.108;6.308;2022-12-18T06:34:40;65.28;;;25.63;;
52396;SDS011;38322;53.108;6.308;2022-12-18T06:37:06;69.10;;;24.70;;
52396;SDS011;38322;53.108;6.308;2022-12-18T06:39:32;56.45;;;24.58;;
52396;SDS011;38322;53.108;6.308;2022-12-18T06:41:57;51.42;;;24.70;;
52396;SDS011;38322;53.108;6.308;2022-12-18T06:44:23;58.30;;;27.75;;
52396;SDS011;38322;53.108;6.308;2022-12-18T06:46:49;60.20;;;24.70;;
52396;SDS011;38322;53.108;6.308;2022-12-18T06:49:15;53.85;;;23.25;;
52396;SDS011;38322;53.108;6.308;2022-12-18T06:51:41;55.15;;;25.75;;
52396;SDS011;38322;53.108;6.308;2022-12-18T06:54:07;59.42;;;28.80;;
52396;SDS011;38322;53.108;6.308;2022-12-18T06:56:33;62.25;;;26.63;;
52396;SDS011;38322;53.108;6.308;2022-12-18T06:58:59;54.03;;;22.83;;
52396;SDS011;38322;53.108;6.308;2022-12-18T07:01:25;66.72;;;27.52;;
52396;SDS011;38322;53.108;6.308;2022-12-18T07:03:52;62.80;;;27.30;;
52396;SDS011;38322;53.108;6.308;2022-12-18T07:06:19;55.47;;;28.23;;
52396;SDS011;38322;53.108;6.308;2022-12-18T07:08:47;49.88;;;24.67;;
52396;SDS011;38322;53.108;6.308;2022-12-18T07:11:13;52.50;;;26.35;;
52396;SDS011;38322;53.108;6.308;2022-12-18T07:13:40;54.72;;;26.10;;
52396;SDS011;38322;53.108;6.308;2022-12-18T07:16:08;55.00;;;24.17;;
52396;SDS011;38322;53.108;6.308;2022-12-18T07:18:37;50.05;;;22.80;;
52396;SDS011;38322;53.108;6.308;2022-12-18T07:21:10;52.20;;;22.25;;
52396;SDS011;38322;53.108;6.308;2022-12-18T07:23:38;49.10;;;21.52;;
52396;SDS011;38322;53.108;6.308;2022-12-18T07:26:04;43.65;;;23.10;;
52396;SDS011;38322;53.108;6.308;2022-12-18T07:28:32;54.83;;;22.25;;
52396;SDS011;38322;53.108;6.308;2022-12-18T07:31:05;44.55;;;21.40;;
52396;SDS011;38322;53.108;6.308;2022-12-18T07:33:33;43.85;;;19.90;;
52396;SDS011;38322;53.108;6.308;2022-12-18T07:35:59;53.45;;;24.38;;
52396;SDS011;38322;53.108;6.308;2022-12-18T07:38:26;45.13;;;22.35;;
52396;SDS011;38322;53.108;6.308;2022-12-18T07:40:52;40.67;;;20.77;;
52396;SDS011;38322;53.108;6.308;2022-12-18T07:43:18;44.10;;;20.90;;
52396;SDS011;38322;53.108;6.308;2022-12-18T07:45:43;48.47;;;23.17;;
52396;SDS011;38322;53.108;6.308;2022-12-18T07:48:09;42.88;;;22.00;;
52396;SDS011;38322;53.108;6.308;2022-12-18T07:50:36;39.38;;;21.73;;
52396;SDS011;38322;53.108;6.308;2022-12-18T07:53:02;48.35;;;25.23;;
52396;SDS011;38322;53.108;6.308;2022-12-18T07:55:30;55.33;;;22.73;;
52396;SDS011;38322;53.108;6.308;2022-12-18T07:57:56;43.28;;;21.10;;
52396;SDS011;38322;53.108;6.308;2022-12-18T08:00:22;46.33;;;23.23;;
52396;SDS011;38322;53.108;6.308;2022-12-18T08:02:48;44.75;;;21.08;;
52396;SDS011;38322;53.108;6.308;2022-12-18T08:05:14;42.85;;;20.60;;
52396;SDS011;38322;53.108;6.308;2022-12-18T08:07:40;46.08;;;20.50;;
52396;SDS011;38322;53.108;6.308;2022-12-18T08:10:06;44.55;;;19.98;;
52396;SDS011;38322;53.108;6.308;2022-12-18T08:12:32;35.97;;;19.73;;
52396;SDS011;38322;53.108;6.308;2022-12-18T08:14:58;38.75;;;22.25;;
52396;SDS011;38322;53.108;6.308;2022-12-18T08:17:24;42.22;;;21.75;;
52396;SDS011;38322;53.108;6.308;2022-12-18T08:19:49;35.22;;;19.20;;
52396;SDS011;38322;53.108;6.308;2022-12-18T08:22:15;47.13;;;21.33;;
52396;SDS011;38322;53.108;6.308;2022-12-18T08:24:41;37.00;;;18.95;;
52396;SDS011;38322;53.108;6.308;2022-12-18T08:27:07;35.78;;;19.63;;
52396;SDS011;38322;53.108;6.308;2022-12-18T08:29:33;35.38;;;19.77;;
52396;SDS011;38322;53.108;6.308;2022-12-18T08:31:59;37.72;;;20.55;;
52396;SDS011;38322;53.108;6.308;2022-12-18T08:34:25;40.25;;;19.42;;
52396;SDS011;38322;53.108;6.308;2022-12-18T08:36:51;36.00;;;20.50;;
52396;SDS011;38322;53.108;6.308;2022-12-18T08:39:16;35.72;;;21.67;;
52396;SDS011;38322;53.108;6.308;2022-12-18T08:41:42;37.97;;;19.27;;
52396;SDS011;38322;53.108;6.308;2022-12-18T08:44:28;35.28;;;20.95;;
52396;SDS011;38322;53.108;6.308;2022-12-18T08:47:06;45.33;;;19.98;;
52396;SDS011;38322;53.108;6.308;2022-12-18T08:49:32;40.65;;;20.60;;
52396;SDS011;38322;53.108;6.308;2022-12-18T08:51:58;37.40;;;18.67;;
52396;SDS011;38322;53.108;6.308;2022-12-18T08:54:24;36.67;;;19.67;;
52396;SDS011;38322;53.108;6.308;2022-12-18T08:56:51;31.95;;;18.00;;
52396;SDS011;38322;53.108;6.308;2022-12-18T08:59:17;39.47;;;21.27;;
52396;SDS011;38322;53.108;6.308;2022-12-18T09:01:44;33.72;;;19.05;;
52396;SDS011;38322;53.108;6.308;2022-12-18T09:04:11;33.30;;;18.50;;
52396;SDS011;38322;53.108;6.308;2022-12-18T09:06:37;37.00;;;20.52;;
52396;SDS011;38322;53.108;6.308;2022-12-18T09:09:03;32.95;;;17.15;;
52396;SDS011;38322;53.108;6.308;2022-12-18T09:11:30;35.72;;;18.98;;
52396;SDS011;38322;53.108;6.308;2022-12-18T09:13:57;33.72;;;19.45;;
52396;SDS011;38322;53.108;6.308;2022-12-18T09:16:25;35.17;;;19.38;;
52396;SDS011;38322;53.108;6.308;2022-12-18T09:18:54;31.00;;;17.65;;
52396;SDS011;38322;53.108;6.308;2022-12-18T09:21:24;32.47;;;17.17;;
52396;SDS011;38322;53.108;6.308;2022-12-18T09:23:52;28.48;;;16.55;;
52396;SDS011;38322;53.108;6.308;2022-12-18T09:26:19;38.50;;;19.73;;
52396;SDS011;38322;53.108;6.308;2022-12-18T09:28:48;35.15;;;20.10;;
52396;SDS011;38322;53.108;6.308;2022-12-18T09:31:14;32.45;;;18.15;;
52396;SDS011;38322;53.108;6.308;2022-12-18T09:33:40;28.80;;;15.77;;
52396;SDS011;38322;53.108;6.308;2022-12-18T09:36:07;29.15;;;17.10;;
52396;SDS011;38322;53.108;6.308;2022-12-18T09:38:35;26.75;;;17.90;;
52396;SDS011;38322;53.108;6.308;2022-12-18T09:41:04;27.50;;;17.65;;
52396;SDS011;38322;53.108;6.308;2022-12-18T09:46:11;29.05;;;17.13;;
52396;SDS011;38322;53.108;6.308;2022-12-18T09:48:46;32.70;;;14.95;;
52396;SDS011;38322;53.108;6.308;2022-12-18T09:51:16;23.48;;;13.80;;
52396;SDS011;38322;53.108;6.308;2022-12-18T09:56:18;27.02;;;16.05;;
52396;SDS011;38322;53.108;6.308;2022-12-18T10:01:21;25.27;;;13.27;;
52396;SDS011;38322;53.108;6.308;2022-12-18T10:03:48;20.10;;;12.20;;
52396;SDS011;38322;53.108;6.308;2022-12-18T10:08:45;18.92;;;12.88;;
52396;SDS011;38322;53.108;6.308;2022-12-18T10:11:22;30.48;;;14.90;;
52396;SDS011;38322;53.108;6.308;2022-12-18T10:16:33;24.67;;;14.20;;
52396;SDS011;38322;53.108;6.308;2022-12-18T10:19:18;24.23;;;13.20;;
52396;SDS011;38322;53.108;6.308;2022-12-18T10:21:48;27.35;;;13.32;;
52396;SDS011;38322;53.108;6.308;2022-12-18T10:24:35;16.50;;;11.05;;
52396;SDS011;38322;53.108;6.308;2022-12-18T10:27:09;19.70;;;12.73;;
52396;SDS011;38322;53.108;6.308;2022-12-18T10:29:40;17.88;;;12.27;;
52396;SDS011;38322;53.108;6.308;2022-12-18T10:32:16;19.92;;;11.02;;
52396;SDS011;38322;53.108;6.308;2022-12-18T10:34:47;19.23;;;10.27;;
52396;SDS011;38322;53.108;6.308;2022-12-18T10:37:17;23.98;;;13.95;;
52396;SDS011;38322;53.108;6.308;2022-12-18T10:39:46;17.63;;;12.25;;
52396;SDS011;38322;53.108;6.308;2022-12-18T10:42:33;17.48;;;11.07;;
52396;SDS011;38322;53.108;6.308;2022-12-18T10:45:01;21.38;;;11.73;;
52396;SDS011;38322;53.108;6.308;2022-12-18T10:49:58;17.98;;;11.15;;
52396;SDS011;38322;53.108;6.308;2022-12-18T10:52:25;16.42;;;9.57;;
52396;SDS011;38322;53.108;6.308;2022-12-18T10:54:57;15.15;;;9.82;;
52396;SDS011;38322;53.108;6.308;2022-12-18T10:57:29;21.00;;;10.77;;
52396;SDS011;38322;53.108;6.308;2022-12-18T10:59:58;18.05;;;11.52;;
52396;SDS011;38322;53.108;6.308;2022-12-18T11:02:28;13.55;;;9.57;;
52396;SDS011;38322;53.108;6.308;2022-12-18T11:05:00;19.88;;;10.45;;
52396;SDS011;38322;53.108;6.308;2022-12-18T11:07:35;17.83;;;11.27;;
52396;SDS011;38322;53.108;6.308;2022-12-18T11:10:18;18.95;;;11.40;;
52396;SDS011;38322;53.108;6.308;2022-12-18T11:12:46;17.33;;;10.23;;
52396;SDS011;38322;53.108;6.308;2022-12-18T11:15:19;13.93;;;9.95;;
52396;SDS011;38322;53.108;6.308;2022-12-18T11:17:49;17.02;;;9.60;;
52396;SDS011;38322;53.108;6.308;2022-12-18T11:20:31;16.05;;;10.00;;
52396;SDS011;38322;53.108;6.308;2022-12-18T11:23:00;21.33;;;11.95;;
52396;SDS011;38322;53.108;6.308;2022-12-18T11:25:28;21.25;;;11.50;;
52396;SDS011;38322;53.108;6.308;2022-12-18T11:28:00;15.75;;;9.98;;
52396;SDS011;38322;53.108;6.308;2022-12-18T11:30:32;14.50;;;9.07;;
52396;SDS011;38322;53.108;6.308;2022-12-18T11:40:34;13.05;;;8.73;;
52396;SDS011;38322;53.108;6.308;2022-12-18T11:45:52;14.32;;;7.72;;
52396;SDS011;38322;53.108;6.308;2022-12-18T11:48:22;9.38;;;6.97;;
52396;SDS011;38322;53.108;6.308;2022-12-18T11:50:51;15.57;;;8.65;;
52396;SDS011;38322;53.108;6.308;2022-12-18T11:53:19;14.00;;;7.70;;
52396;SDS011;38322;53.108;6.308;2022-12-18T11:58:26;10.90;;;7.57;;
52396;SDS011;38322;53.108;6.308;2022-12-18T12:00:58;9.30;;;7.65;;
52396;SDS011;38322;53.108;6.308;2022-12-18T12:03:39;12.60;;;7.80;;
52396;SDS011;38322;53.108;6.308;2022-12-18T12:06:26;11.20;;;7.72;;
52396;SDS011;38322;53.108;6.308;2022-12-18T12:11:35;11.65;;;6.32;;
52396;SDS011;38322;53.108;6.308;2022-12-18T12:14:15;10.13;;;6.55;;
52396;SDS011;38322;53.108;6.308;2022-12-18T12:19:29;10.07;;;6.00;;
52396;SDS011;38322;53.108;6.308;2022-12-18T12:27:36;10.55;;;6.03;;
52396;SDS011;38322;53.108;6.308;2022-12-18T12:30:18;10.82;;;5.90;;
52396;SDS011;38322;53.108;6.308;2022-12-18T12:35:42;7.88;;;4.95;;
52396;SDS011;38322;53.108;6.308;2022-12-18T12:40:52;12.30;;;6.45;;
52396;SDS011;38322;53.108;6.308;2022-12-18T12:48:48;11.10;;;6.05;;
52396;SDS011;38322;53.108;6.308;2022-12-18T12:51:24;9.65;;;7.07;;
52396;SDS011;38322;53.108;6.308;2022-12-18T12:53:53;10.95;;;6.00;;
52396;SDS011;38322;53.108;6.308;2022-12-18T12:56:21;12.55;;;6.13;;
52396;SDS011;38322;53.108;6.308;2022-12-18T13:04:09;11.07;;;6.22;;
52396;SDS011;38322;53.108;6.308;2022-12-18T13:06:56;10.60;;;5.47;;
52396;SDS011;38322;53.108;6.308;2022-12-18T13:09:31;12.55;;;5.68;;
52396;SDS011;38322;53.108;6.308;2022-12-18T13:12:03;10.23;;;6.10;;
52396;SDS011;38322;53.108;6.308;2022-12-18T13:14:53;11.82;;;6.93;;
52396;SDS011;38322;53.108;6.308;2022-12-18T13:17:36;10.60;;;6.40;;
52396;SDS011;38322;53.108;6.308;2022-12-18T13:20:04;11.93;;;6.90;;
52396;SDS011;38322;53.108;6.308;2022-12-18T13:22:33;6.95;;;4.97;;
52396;SDS011;38322;53.108;6.308;2022-12-18T13:25:01;6.38;;;4.72;;
52396;SDS011;38322;53.108;6.308;2022-12-18T13:35:41;12.10;;;6.00;;
52396;SDS011;38322;53.108;6.308;2022-12-18T13:45:48;12.15;;;6.03;;
52396;SDS011;38322;53.108;6.308;2022-12-18T13:48:25;12.15;;;5.57;;
52396;SDS011;38322;53.108;6.308;2022-12-18T13:50:55;9.38;;;5.97;;
52396;SDS011;38322;53.108;6.308;2022-12-18T13:53:33;8.27;;;5.60;;
52396;SDS011;38322;53.108;6.308;2022-12-18T13:56:03;9.57;;;4.82;;
52396;SDS011;38322;53.108;6.308;2022-12-18T13:58:30;9.55;;;5.13;;
52396;SDS011;38322;53.108;6.308;2022-12-18T14:00:56;8.38;;;5.55;;
52396;SDS011;38322;53.108;6.308;2022-12-18T14:03:25;8.50;;;5.05;;
52396;SDS011;38322;53.108;6.308;2022-12-18T14:05:54;9.95;;;4.70;;
52396;SDS011;38322;53.108;6.308;2022-12-18T14:08:25;11.85;;;6.22;;
52396;SDS011;38322;53.108;6.308;2022-12-18T14:10:57;7.65;;;4.55;;
52396;SDS011;38322;53.108;6.308;2022-12-18T14:13:26;6.80;;;4.07;;
52396;SDS011;38322;53.108;6.308;2022-12-18T14:15:55;7.75;;;4.95;;
52396;SDS011;38322;53.108;6.308;2022-12-18T14:18:36;8.18;;;4.65;;
52396;SDS011;38322;53.108;6.308;2022-12-18T14:21:18;8.30;;;4.47;;
52396;SDS011;38322;53.108;6.308;2022-12-18T14:23:45;8.93;;;5.10;;
52396;SDS011;38322;53.108;6.308;2022-12-18T14:26:21;9.70;;;5.63;;
52396;SDS011;38322;53.108;6.308;2022-12-18T14:28:50;8.60;;;6.05;;
52396;SDS011;38322;53.108;6.308;2022-12-18T14:31:19;9.65;;;5.88;;
52396;SDS011;38322;53.108;6.308;2022-12-18T14:33:49;8.50;;;5.40;;
52396;SDS011;38322;53.108;6.308;2022-12-18T14:36:18;9.32;;;6.60;;
52396;SDS011;38322;53.108;6.308;2022-12-18T14:38:49;6.13;;;4.10;;
52396;SDS011;38322;53.108;6.308;2022-12-18T14:41:16;6.95;;;4.30;;
52396;SDS011;38322;53.108;6.308;2022-12-18T14:43:44;11.40;;;6.35;;
52396;SDS011;38322;53.108;6.308;2022-12-18T14:46:37;11.00;;;7.53;;
52396;SDS011;38322;53.108;6.308;2022-12-18T14:51:54;6.57;;;4.68;;
52396;SDS011;38322;53.108;6.308;2022-12-18T14:54:21;9.90;;;5.82;;
52396;SDS011;38322;53.108;6.308;2022-12-18T14:56:51;8.70;;;4.72;;
52396;SDS011;38322;53.108;6.308;2022-12-18T14:59:23;9.05;;;5.40;;
52396;SDS011;38322;53.108;6.308;2022-12-18T15:01:57;8.75;;;5.63;;
52396;SDS011;38322;53.108;6.308;2022-12-18T15:04:31;10.00;;;5.40;;
52396;SDS011;38322;53.108;6.308;2022-12-18T15:07:13;7.35;;;5.32;;
52396;SDS011;38322;53.108;6.308;2022-12-18T15:09:42;9.95;;;6.00;;
52396;SDS011;38322;53.108;6.308;2022-12-18T15:12:21;11.68;;;6.82;;
52396;SDS011;38322;53.108;6.308;2022-12-18T15:20:25;8.32;;;5.13;;
52396;SDS011;38322;53.108;6.308;2022-12-18T15:22:51;9.68;;;5.32;;
52396;SDS011;38322;53.108;6.308;2022-12-18T15:25:26;10.68;;;5.13;;
52396;SDS011;38322;53.108;6.308;2022-12-18T15:28:01;9.85;;;5.00;;
52396;SDS011;38322;53.108;6.308;2022-12-18T15:30:28;8.82;;;5.10;;
52396;SDS011;38322;53.108;6.308;2022-12-18T15:33:17;9.07;;;5.43;;
52396;SDS011;38322;53.108;6.308;2022-12-18T15:35:42;11.80;;;6.13;;
52396;SDS011;38322;53.108;6.308;2022-12-18T15:38:08;9.90;;;5.80;;
52396;SDS011;38322;53.108;6.308;2022-12-18T15:40:34;7.88;;;4.57;;
52396;SDS011;38322;53.108;6.308;2022-12-18T15:43:00;11.80;;;6.57;;
52396;SDS011;38322;53.108;6.308;2022-12-18T15:45:44;18.35;;;6.22;;
52396;SDS011;38322;53.108;6.308;2022-12-18T15:48:20;11.23;;;6.95;;
52396;SDS011;38322;53.108;6.308;2022-12-18T15:50:48;8.70;;;6.00;;
52396;SDS011;38322;53.108;6.308;2022-12-18T15:53:16;7.32;;;5.93;;
52396;SDS011;38322;53.108;6.308;2022-12-18T15:55:42;10.35;;;6.30;;
52396;SDS011;38322;53.108;6.308;2022-12-18T15:58:27;11.63;;;6.40;;
52396;SDS011;38322;53.108;6.308;2022-12-18T16:00:52;11.30;;;6.05;;
52396;SDS011;38322;53.108;6.308;2022-12-18T16:03:22;11.25;;;6.68;;
52396;SDS011;38322;53.108;6.308;2022-12-18T16:05:48;8.05;;;5.68;;
52396;SDS011;38322;53.108;6.308;2022-12-18T16:08:13;10.95;;;6.47;;
52396;SDS011;38322;53.108;6.308;2022-12-18T16:10:40;10.93;;;6.53;;
52396;SDS011;38322;53.108;6.308;2022-12-18T16:13:09;11.02;;;6.50;;
52396;SDS011;38322;53.108;6.308;2022-12-18T16:15:36;13.02;;;7.05;;
52396;SDS011;38322;53.108;6.308;2022-12-18T16:18:02;13.90;;;7.05;;
52396;SDS011;38322;53.108;6.308;2022-12-18T16:20:28;11.18;;;6.13;;
52396;SDS011;38322;53.108;6.308;2022-12-18T16:22:55;9.38;;;5.50;;
52396;SDS011;38322;53.108;6.308;2022-12-18T16:25:21;11.18;;;7.30;;
52396;SDS011;38322;53.108;6.308;2022-12-18T16:27:49;10.57;;;7.65;;
52396;SDS011;38322;53.108;6.308;2022-12-18T16:30:17;12.07;;;7.65;;
52396;SDS011;38322;53.108;6.308;2022-12-18T16:32:44;11.18;;;6.10;;
52396;SDS011;38322;53.108;6.308;2022-12-18T16:35:11;14.65;;;6.50;;
52396;SDS011;38322;53.108;6.308;2022-12-18T16:37:38;11.05;;;7.20;;
52396;SDS011;38322;53.108;6.308;2022-12-18T16:40:06;12.98;;;7.63;;
52396;SDS011;38322;53.108;6.308;2022-12-18T16:42:34;14.77;;;8.23;;
52396;SDS011;38322;53.108;6.308;2022-12-18T16:45:02;11.40;;;7.80;;
52396;SDS011;38322;53.108;6.308;2022-12-18T16:47:29;12.70;;;7.35;;
52396;SDS011;38322;53.108;6.308;2022-12-18T16:49:54;15.05;;;8.10;;
52396;SDS011;38322;53.108;6.308;2022-12-18T16:52:21;15.30;;;8.63;;
52396;SDS011;38322;53.108;6.308;2022-12-18T16:54:47;16.15;;;8.65;;
52396;SDS011;38322;53.108;6.308;2022-12-18T16:57:14;10.18;;;6.75;;
52396;SDS011;38322;53.108;6.308;2022-12-18T16:59:42;13.05;;;7.75;;
52396;SDS011;38322;53.108;6.308;2022-12-18T17:02:13;14.00;;;7.93;;
52396;SDS011;38322;53.108;6.308;2022-12-18T17:04:41;12.65;;;7.72;;
52396;SDS011;38322;53.108;6.308;2022-12-18T17:07:08;12.07;;;7.20;;
52396;SDS011;38322;53.108;6.308;2022-12-18T17:09:34;11.32;;;7.40;;
52396;SDS011;38322;53.108;6.308;2022-12-18T17:12:00;9.10;;;6.72;;
52396;SDS011;38322;53.108;6.308;2022-12-18T17:14:26;10.50;;;7.00;;
52396;SDS011;38322;53.108;6.308;2022-12-18T17:16:52;13.50;;;8.45;;
52396;SDS011;38322;53.108;6.308;2022-12-18T17:19:18;14.50;;;8.25;;
52396;SDS011;38322;53.108;6.308;2022-12-18T17:21:48;14.00;;;9.88;;
52396;SDS011;38322;53.108;6.308;2022-12-18T17:24:14;16.17;;;8.48;;
52396;SDS011;38322;53.108;6.308;2022-12-18T17:26:41;11.43;;;7.65;;
52396;SDS011;38322;53.108;6.308;2022-12-18T17:29:07;14.75;;;8.82;;
52396;SDS011;38322;53.108;6.308;2022-12-18T17:31:34;13.23;;;8.68;;
52396;SDS011;38322;53.108;6.308;2022-12-18T17:34:01;12.20;;;7.60;;
52396;SDS011;38322;53.108;6.308;2022-12-18T17:36:27;14.30;;;8.20;;
52396;SDS011;38322;53.108;6.308;2022-12-18T17:38:56;15.73;;;8.85;;
52396;SDS011;38322;53.108;6.308;2022-12-18T17:41:24;16.83;;;9.00;;
52396;SDS011;38322;53.108;6.308;2022-12-18T17:43:51;13.95;;;7.88;;
52396;SDS011;38322;53.108;6.308;2022-12-18T17:46:20;10.73;;;8.35;;
52396;SDS011;38322;53.108;6.308;2022-12-18T17:48:46;14.65;;;8.93;;
52396;SDS011;38322;53.108;6.308;2022-12-18T17:51:13;12.95;;;8.02;;
52396;SDS011;38322;53.108;6.308;2022-12-18T17:53:40;14.32;;;8.88;;
52396;SDS011;38322;53.108;6.308;2022-12-18T17:56:06;16.38;;;8.93;;
52396;SDS011;38322;53.108;6.308;2022-12-18T17:58:35;13.05;;;8.70;;
52396;SDS011;38322;53.108;6.308;2022-12-18T18:01:02;10.18;;;8.00;;
52396;SDS011;38322;53.108;6.308;2022-12-18T18:03:28;15.57;;;8.00;;
52396;SDS011;38322;53.108;6.308;2022-12-18T18:05:57;13.57;;;9.15;;
52396;SDS011;38322;53.108;6.308;2022-12-18T18:08:24;17.23;;;9.48;;
52396;SDS011;38322;53.108;6.308;2022-12-18T18:10:50;16.70;;;8.50;;
52396;SDS011;38322;53.108;6.308;2022-12-18T18:13:18;13.60;;;8.57;;
52396;SDS011;38322;53.108;6.308;2022-12-18T18:16:06;14.05;;;8.60;;
52396;SDS011;38322;53.108;6.308;2022-12-18T18:18:33;16.13;;;11.05;;
52396;SDS011;38322;53.108;6.308;2022-12-18T18:21:02;13.15;;;9.35;;
52396;SDS011;38322;53.108;6.308;2022-12-18T18:23:31;15.15;;;8.77;;
52396;SDS011;38322;53.108;6.308;2022-12-18T18:26:05;13.55;;;8.98;;
52396;SDS011;38322;53.108;6.308;2022-12-18T18:28:32;14.25;;;8.43;;
52396;SDS011;38322;53.108;6.308;2022-12-18T18:31:02;14.38;;;9.77;;
52396;SDS011;38322;53.108;6.308;2022-12-18T18:33:30;15.38;;;8.77;;
52396;SDS011;38322;53.108;6.308;2022-12-18T18:35:57;14.05;;;9.00;;
52396;SDS011;38322;53.108;6.308;2022-12-18T18:38:23;14.05;;;9.50;;
52396;SDS011;38322;53.108;6.308;2022-12-18T18:40:56;15.90;;;9.93;;
52396;SDS011;38322;53.108;6.308;2022-12-18T18:43:24;15.45;;;9.45;;
52396;SDS011;38322;53.108;6.308;2022-12-18T18:45:53;16.55;;;10.73;;
52396;SDS011;38322;53.108;6.308;2022-12-18T18:48:20;15.77;;;9.15;;
52396;SDS011;38322;53.108;6.308;2022-12-18T18:50:54;14.30;;;9.15;;
52396;SDS011;38322;53.108;6.308;2022-12-18T18:53:24;15.18;;;9.18;;
52396;SDS011;38322;53.108;6.308;2022-12-18T18:55:50;15.15;;;10.02;;
52396;SDS011;38322;53.108;6.308;2022-12-18T18:58:16;16.20;;;9.98;;
52396;SDS011;38322;53.108;6.308;2022-12-18T19:00:42;14.68;;;10.80;;
52396;SDS011;38322;53.108;6.308;2022-12-18T19:03:08;13.02;;;9.13;;
52396;SDS011;38322;53.108;6.308;2022-12-18T19:05:33;15.90;;;12.10;;
52396;SDS011;38322;53.108;6.308;2022-12-18T19:07:59;17.10;;;12.18;;
52396;SDS011;38322;53.108;6.308;2022-12-18T19:10:25;15.02;;;10.23;;
52396;SDS011;38322;53.108;6.308;2022-12-18T19:12:51;15.25;;;9.98;;
52396;SDS011;38322;53.108;6.308;2022-12-18T19:15:35;13.30;;;9.60;;
52396;SDS011;38322;53.108;6.308;2022-12-18T19:18:01;18.17;;;10.20;;
52396;SDS011;38322;53.108;6.308;2022-12-18T19:20:27;15.55;;;8.90;;
52396;SDS011;38322;53.108;6.308;2022-12-18T19:22:54;15.18;;;9.57;;
52396;SDS011;38322;53.108;6.308;2022-12-18T19:25:20;16.73;;;10.10;;
52396;SDS011;38322;53.108;6.308;2022-12-18T19:27:47;13.00;;;9.68;;
52396;SDS011;38322;53.108;6.308;2022-12-18T19:30:13;15.25;;;10.02;;
52396;SDS011;38322;53.108;6.308;2022-12-18T19:32:39;14.43;;;10.55;;
52396;SDS011;38322;53.108;6.308;2022-12-18T19:35:06;15.90;;;9.70;;
52396;SDS011;38322;53.108;6.308;2022-12-18T19:37:33;17.77;;;11.30;;
52396;SDS011;38322;53.108;6.308;2022-12-18T19:39:59;12.18;;;9.27;;
52396;SDS011;38322;53.108;6.308;2022-12-18T19:42:25;16.92;;;10.68;;
52396;SDS011;38322;53.108;6.308;2022-12-18T19:44:51;19.83;;;10.68;;
52396;SDS011;38322;53.108;6.308;2022-12-18T19:47:17;19.05;;;10.48;;
52396;SDS011;38322;53.108;6.308;2022-12-18T19:49:43;13.63;;;9.65;;
52396;SDS011;38322;53.108;6.308;2022-12-18T19:52:09;17.17;;;10.35;;
52396;SDS011;38322;53.108;6.308;2022-12-18T19:54:35;16.80;;;10.70;;
52396;SDS011;38322;53.108;6.308;2022-12-18T19:57:00;15.10;;;10.00;;
52396;SDS011;38322;53.108;6.308;2022-12-18T19:59:26;19.95;;;11.40;;
52396;SDS011;38322;53.108;6.308;2022-12-18T20:01:52;18.00;;;11.35;;
52396;SDS011;38322;53.108;6.308;2022-12-18T20:04:18;18.02;;;11.02;;
52396;SDS011;38322;53.108;6.308;2022-12-18T20:06:46;19.73;;;12.07;;
52396;SDS011;38322;53.108;6.308;2022-12-18T20:09:14;19.35;;;12.27;;
52396;SDS011;38322;53.108;6.308;2022-12-18T20:11:40;19.10;;;13.07;;
52396;SDS011;38322;53.108;6.308;2022-12-18T20:14:07;19.45;;;11.25;;
52396;SDS011;38322;53.108;6.308;2022-12-18T20:16:34;17.73;;;11.40;;
52396;SDS011;38322;53.108;6.308;2022-12-18T20:19:00;17.13;;;12.35;;
52396;SDS011;38322;53.108;6.308;2022-12-18T20:21:26;20.38;;;12.85;;
52396;SDS011;38322;53.108;6.308;2022-12-18T20:23:52;24.45;;;13.15;;
52396;SDS011;38322;53.108;6.308;2022-12-18T20:26:20;22.02;;;13.07;;
52396;SDS011;38322;53.108;6.308;2022-12-18T20:28:46;22.30;;;13.27;;
52396;SDS011;38322;53.108;6.308;2022-12-18T20:31:12;25.58;;;12.68;;
52396;SDS011;38322;53.108;6.308;2022-12-18T20:33:38;20.13;;;14.05;;
52396;SDS011;38322;53.108;6.308;2022-12-18T20:36:05;24.40;;;14.43;;
52396;SDS011;38322;53.108;6.308;2022-12-18T20:38:33;23.98;;;14.82;;
52396;SDS011;38322;53.108;6.308;2022-12-18T20:41:05;22.92;;;13.82;;
52396;SDS011;38322;53.108;6.308;2022-12-18T20:43:32;21.80;;;13.00;;
52396;SDS011;38322;53.108;6.308;2022-12-18T20:45:59;21.33;;;12.95;;
52396;SDS011;38322;53.108;6.308;2022-12-18T20:48:26;21.38;;;13.98;;
52396;SDS011;38322;53.108;6.308;2022-12-18T20:50:59;21.58;;;13.75;;
52396;SDS011;38322;53.108;6.308;2022-12-18T20:53:26;20.38;;;14.95;;
52396;SDS011;38322;53.108;6.308;2022-12-18T20:55:52;20.33;;;14.65;;
52396;SDS011;38322;53.108;6.308;2022-12-18T20:58:18;22.50;;;14.38;;
